createdAt,value
2022-08-22T00:02:05.254Z,77.22
2022-08-22T00:02:55.136Z,77.38
2022-08-22T00:06:24.519Z,77.19
2022-08-22T00:10:43.452Z,77.45
2022-08-22T00:14:54.187Z,77.61
2022-08-22T00:19:03.866Z,77.81
2022-08-22T00:23:14.807Z,77.94
2022-08-22T00:27:29.544Z,78.14
2022-08-22T00:31:41.920Z,78.25
2022-08-22T00:35:54.363Z,78.22
2022-08-22T00:40:18.745Z,78.55
2022-08-22T00:44:34.093Z,78.80
2022-08-22T00:48:45.024Z,79.13
2022-08-22T00:53:03.665Z,79.39
2022-08-22T00:57:21.884Z,79.59
2022-08-22T01:01:34.168Z,79.86
2022-08-22T01:05:59.925Z,80.02
2022-08-22T01:10:35.146Z,80.26
2022-08-22T01:14:45.670Z,80.34
2022-08-22T01:19:15.845Z,80.41
2022-08-22T01:23:28.050Z,80.49
2022-08-22T01:27:40.143Z,80.51
2022-08-22T01:32:16.345Z,80.79
2022-08-22T01:36:47.332Z,80.89
2022-08-22T01:40:54.196Z,81.13
2022-08-22T01:45:18.705Z,81.37
2022-08-22T01:49:32.295Z,81.85
2022-08-22T01:54:13.858Z,82.07
2022-08-22T01:58:28.997Z,82.24
2022-08-22T02:02:59.837Z,82.40
2022-08-22T02:07:44.639Z,82.59
2022-08-22T02:11:56.161Z,82.71
2022-08-22T02:16:29.097Z,82.65
2022-08-22T02:20:44.117Z,82.68
2022-08-22T02:24:59.387Z,82.78
2022-08-22T02:29:11.756Z,82.78
2022-08-22T02:33:45.317Z,82.78
2022-08-22T02:38:02.756Z,83.08
2022-08-22T02:42:32.346Z,83.26
2022-08-22T02:47:24.515Z,83.24
2022-08-22T02:51:54.377Z,83.24
2022-08-22T02:56:12.335Z,83.46
2022-08-22T03:00:31.891Z,83.65
2022-08-22T03:04:57.136Z,83.68
2022-08-22T03:09:28.556Z,83.88
2022-08-22T03:13:40.701Z,83.97
2022-08-22T03:18:09.701Z,84.19
2022-08-22T03:22:41.958Z,84.17
2022-08-22T03:26:54.237Z,84.37
2022-08-22T03:31:25.297Z,84.34
2022-08-22T03:35:43.618Z,84.25
2022-08-22T03:39:58.706Z,84.33
2022-08-22T03:44:43.273Z,84.30
2022-08-22T03:48:58.683Z,84.25
2022-08-22T03:53:31.454Z,84.49
2022-08-22T03:58:27.373Z,84.63
2022-08-22T04:02:44.328Z,85.00
2022-08-22T04:06:58.961Z,85.07
2022-08-22T04:11:10.826Z,85.20
2022-08-22T04:15:25.926Z,85.37
2022-08-22T04:20:19.397Z,85.63
2022-08-22T04:25:22.737Z,85.63
2022-08-22T04:29:37.712Z,85.84
2022-08-22T04:38:48.364Z,86.24
2022-08-22T04:43:00.975Z,86.36
2022-08-22T04:47:16.165Z,86.70
2022-08-22T04:51:24.943Z,86.75
2022-08-22T05:05:02.836Z,86.30
2022-08-22T05:09:16.311Z,86.15
2022-08-22T05:13:26.386Z,85.88
2022-08-22T05:17:38.578Z,85.70
2022-08-22T05:22:04.581Z,85.45
2022-08-22T05:26:17.390Z,85.46
2022-08-22T05:30:30.143Z,85.14
2022-08-22T05:35:05.728Z,84.93
2022-08-22T05:39:17.306Z,84.74
2022-08-22T05:43:29.315Z,84.59
2022-08-22T05:47:31.595Z,84.28
2022-08-22T05:51:43.896Z,84.09
2022-08-22T05:55:56.554Z,83.74
2022-08-22T06:00:22.774Z,83.81
2022-08-22T06:04:47.415Z,83.94
2022-08-22T06:08:51.815Z,83.68
2022-08-22T06:13:02.943Z,83.48
2022-08-22T06:17:15.416Z,83.25
2022-08-22T06:21:46.048Z,83.25
2022-08-22T06:26:20.825Z,83.02
2022-08-22T06:30:38.887Z,83.28
2022-08-22T06:34:56.058Z,83.17
2022-08-22T06:39:12.803Z,83.12
2022-08-22T06:43:16.476Z,83.19
2022-08-22T06:47:30.035Z,83.28
2022-08-22T06:51:37.348Z,82.90
2022-08-22T06:56:04.570Z,82.55
2022-08-22T07:00:20.110Z,81.71
2022-08-22T07:04:34.298Z,80.92
2022-08-22T07:08:44.156Z,79.64
2022-08-22T07:12:57.426Z,78.99
2022-08-22T07:17:10.976Z,79.51
2022-08-22T07:21:24.037Z,79.71
2022-08-22T07:25:49.157Z,79.25
2022-08-22T07:30:01.420Z,78.98
2022-08-22T07:34:22.777Z,77.88
2022-08-22T07:38:27.621Z,75.93
2022-08-22T07:42:38.395Z,75.19
2022-08-22T07:46:53.346Z,74.01
2022-08-22T07:51:04.811Z,72.71
2022-08-22T07:55:22.560Z,71.22
2022-08-22T07:59:35.142Z,70.86
2022-08-22T08:08:09.494Z,68.40
2022-08-22T08:12:19.750Z,67.19
2022-08-22T08:16:46.508Z,66.03
2022-08-22T08:20:59.035Z,64.90
2022-08-22T08:25:17.251Z,64.74
2022-08-22T08:29:29.901Z,64.44
2022-08-22T08:33:36.929Z,64.33
2022-08-22T08:38:12.425Z,64.38
2022-08-22T08:42:27.470Z,64.36
2022-08-22T08:46:55.513Z,64.45
2022-08-22T08:51:23.507Z,64.17
2022-08-22T08:55:36.497Z,65.09
2022-08-22T09:00:01.577Z,64.66
2022-08-22T09:04:25.009Z,64.85
2022-08-22T09:08:44.260Z,64.77
2022-08-22T09:13:11.434Z,65.49
2022-08-22T09:17:39.882Z,65.06
2022-08-22T09:21:50.476Z,64.90
2022-08-22T09:26:04.944Z,64.14
2022-08-22T09:30:08.045Z,64.55
2022-08-22T09:34:27.442Z,64.48
2022-08-22T09:38:40.290Z,64.35
2022-08-22T09:43:01.238Z,64.52
2022-08-22T09:47:13.691Z,64.25
2022-08-22T09:51:31.598Z,63.90
2022-08-22T09:55:45.705Z,63.08
2022-08-22T10:00:02.118Z,62.01
2022-08-22T10:04:12.548Z,61.36
2022-08-22T10:08:26.338Z,60.40
2022-08-22T10:12:39.337Z,60.42
2022-08-22T10:16:56.322Z,59.89
2022-08-22T10:21:09.613Z,59.86
2022-08-22T10:25:25.144Z,59.25
2022-08-22T10:29:44.006Z,58.95
2022-08-22T10:33:56.436Z,58.25
2022-08-22T10:38:20.787Z,58.33
2022-08-22T10:42:36.453Z,58.91
2022-08-22T10:46:58.060Z,58.23
2022-08-22T10:51:08.803Z,58.15
2022-08-22T10:55:28.300Z,58.68
2022-08-22T10:59:33.825Z,57.74
2022-08-22T11:03:58.393Z,58.50
2022-08-22T11:08:02.766Z,58.18
2022-08-22T11:12:18.138Z,57.98
2022-08-22T11:19:22.481Z,57.16
2022-08-22T11:24:04.549Z,58.05
2022-08-22T11:28:44.078Z,57.29
2022-08-22T11:33:19.800Z,57.33
2022-08-22T11:37:54.958Z,57.15
2022-08-22T11:42:29.646Z,57.27
2022-08-22T11:47:01.884Z,57.19
2022-08-22T11:51:57.570Z,58.18
2022-08-22T11:56:42.730Z,57.77
2022-08-22T12:01:34.496Z,58.09
2022-08-22T12:05:58.477Z,58.47
2022-08-22T12:10:56.848Z,58.37
2022-08-22T12:15:49.003Z,59.13
2022-08-22T12:20:30.136Z,59.47
2022-08-22T12:25:13.623Z,58.92
2022-08-22T12:29:57.309Z,59.36
2022-08-22T12:34:44.422Z,59.12
2022-08-22T12:39:29.571Z,59.87
2022-08-22T12:44:05.029Z,60.08
2022-08-22T12:48:52.977Z,60.51
2022-08-22T12:53:25.410Z,61.08
2022-08-22T12:58:21.180Z,61.21
2022-08-22T13:02:49.704Z,60.89
2022-08-22T13:07:43.549Z,61.56
2022-08-22T13:12:06.569Z,61.72
2022-08-22T13:16:40.332Z,61.21
2022-08-22T13:21:22.158Z,60.66
2022-08-22T13:25:57.526Z,61.18
2022-08-22T13:30:33.096Z,61.57
2022-08-22T13:34:57.490Z,62.20
2022-08-22T13:39:37.217Z,62.37
2022-08-22T13:44:12.846Z,62.92
2022-08-22T13:48:40.638Z,62.59
2022-08-22T13:53:11.818Z,62.07
2022-08-22T13:57:58.185Z,61.93
2022-08-22T14:02:50.361Z,61.96
2022-08-22T14:07:40.817Z,62.10
2022-08-22T14:12:12.602Z,61.54
2022-08-22T14:16:46.027Z,61.16
2022-08-22T14:21:17.943Z,60.76
2022-08-22T14:25:37.173Z,60.79
2022-08-22T14:30:10.807Z,60.73
2022-08-22T14:34:49.414Z,60.53
2022-08-22T14:39:34.794Z,60.73
2022-08-22T14:44:34.069Z,61.17
2022-08-22T14:49:14.370Z,61.09
2022-08-22T14:53:38.899Z,60.33
2022-08-22T14:58:05.876Z,61.21
2022-08-22T15:02:50.704Z,61.31
2022-08-22T15:07:16.868Z,61.41
2022-08-22T15:12:13.761Z,62.04
2022-08-22T15:16:45.065Z,61.88
2022-08-22T15:21:27.681Z,62.34
2022-08-22T15:25:56.654Z,62.60
2022-08-22T15:30:24.047Z,62.99
2022-08-22T15:35:13.737Z,62.76
2022-08-22T15:39:48.238Z,62.83
2022-08-22T15:44:31.072Z,62.99
2022-08-22T15:49:06.386Z,62.95
2022-08-22T15:53:45.207Z,63.21
2022-08-22T15:58:14.125Z,63.69
2022-08-22T16:02:52.268Z,63.77
2022-08-22T16:07:22.271Z,64.13
2022-08-22T16:12:14.861Z,64.18
2022-08-22T16:16:49.664Z,64.58
2022-08-22T16:21:36.314Z,64.90
2022-08-22T16:26:02.192Z,65.03
2022-08-22T16:30:41.351Z,65.39
2022-08-22T16:35:17.905Z,65.81
2022-08-22T16:39:50.391Z,66.15
2022-08-22T16:44:23.323Z,66.54
2022-08-22T16:48:56.186Z,66.53
2022-08-22T16:53:32.693Z,66.85
2022-08-22T16:58:11.093Z,66.78
2022-08-22T17:02:50.337Z,67.00
2022-08-22T17:07:24.216Z,66.89
2022-08-22T17:11:55.120Z,66.91
2022-08-22T17:16:26.766Z,67.15
2022-08-22T17:21:04.375Z,67.37
2022-08-22T17:25:43.723Z,67.34
2022-08-22T17:30:07.636Z,67.63
2022-08-22T17:34:45.972Z,67.76
2022-08-22T17:39:22.534Z,68.11
2022-08-22T17:44:04.811Z,68.51
2022-08-22T17:48:32.328Z,68.89
2022-08-22T17:53:05.220Z,69.04
2022-08-22T17:57:40.226Z,69.55
2022-08-22T18:02:04.834Z,69.80
2022-08-22T18:06:36.233Z,70.34
2022-08-22T18:11:12.181Z,70.57
2022-08-22T18:16:03.918Z,70.98
2022-08-22T18:20:37.279Z,71.17
2022-08-22T18:25:24.011Z,71.32
2022-08-22T18:30:03.192Z,71.41
2022-08-22T18:34:48.170Z,71.51
2022-08-22T18:39:30.030Z,71.58
2022-08-22T18:44:15.380Z,71.40
2022-08-22T18:49:18.293Z,71.52
2022-08-22T18:53:49.537Z,71.90
2022-08-22T18:58:27.088Z,72.18
2022-08-22T19:03:00.147Z,72.23
2022-08-22T19:07:29.966Z,72.47
2022-08-22T19:12:21.974Z,72.69
2022-08-22T19:16:54.684Z,72.64
2022-08-22T19:21:26.358Z,71.89
2022-08-22T19:26:03.679Z,72.00
2022-08-22T19:30:39.054Z,72.02
2022-08-22T19:35:10.495Z,71.87
2022-08-22T19:39:35.900Z,72.12
2022-08-22T19:44:00.826Z,71.89
2022-08-22T19:48:36.862Z,71.98
2022-08-22T19:53:37.546Z,71.97
2022-08-22T19:58:08.947Z,72.01
2022-08-22T20:02:42.322Z,72.12
2022-08-22T20:07:45.524Z,72.48
2022-08-22T20:11:58.280Z,72.60
2022-08-22T20:16:29.737Z,72.67
2022-08-22T20:21:02.779Z,72.64
2022-08-22T20:30:12.217Z,72.85
2022-08-22T20:34:44.761Z,72.71
2022-08-22T20:39:34.438Z,72.58
2022-08-22T20:44:09.407Z,72.40
2022-08-22T20:48:42.659Z,72.84
2022-08-22T20:53:00.657Z,72.77
2022-08-22T20:57:18.604Z,72.74
2022-08-22T21:01:31.245Z,73.18
2022-08-22T21:05:50.230Z,73.35
2022-08-22T21:10:22.886Z,73.34
2022-08-22T21:14:47.574Z,73.17
2022-08-22T21:19:16.558Z,73.32
2022-08-22T21:23:29.512Z,73.52
2022-08-22T21:27:36.364Z,73.33
2022-08-22T21:31:51.778Z,73.13
2022-08-22T21:36:27.345Z,73.50
2022-08-22T21:40:40.065Z,73.90
2022-08-22T21:44:45.900Z,73.93
2022-08-22T21:49:11.956Z,74.28
2022-08-22T21:53:47.515Z,74.34
2022-08-22T21:58:36.544Z,74.83
2022-08-22T22:03:08.943Z,74.53
2022-08-22T22:07:21.710Z,74.67
2022-08-22T22:12:11.267Z,74.69
2022-08-22T22:16:24.121Z,75.06
2022-08-22T22:20:36.426Z,75.32
2022-08-22T22:25:02.471Z,75.43
2022-08-22T22:29:28.454Z,75.54
2022-08-22T22:34:01.670Z,75.53
2022-08-22T22:38:14.834Z,75.60
2022-08-22T22:42:27.390Z,75.52
2022-08-22T22:47:01.757Z,75.68
2022-08-22T22:51:34.667Z,75.99
2022-08-22T22:55:48.109Z,75.87
2022-08-22T23:05:06.341Z,74.81
2022-08-22T23:09:18.684Z,74.69
2022-08-22T23:13:31.078Z,74.71
2022-08-22T23:22:47.136Z,75.37
2022-08-22T23:27:09.336Z,75.06
2022-08-22T23:31:21.653Z,75.37
2022-08-22T23:35:25.776Z,75.64
2022-08-22T23:39:37.883Z,75.39
2022-08-22T23:43:50.567Z,75.50
2022-08-22T23:48:09.094Z,75.40
2022-08-22T23:52:21.997Z,75.39
2022-08-22T23:56:34.495Z,75.80
